createdAt,value
2018-03-18T00:00:31.856Z,1005.09
2018-03-18T00:01:31.847Z,1005.12
2018-03-18T00:02:31.813Z,1005.1
2018-03-18T00:03:31.876Z,1005.11
2018-03-18T00:04:31.859Z,1005.1
2018-03-18T00:05:31.826Z,1005.09
2018-03-18T00:06:31.842Z,1005.09
2018-03-18T00:07:31.806Z,1005.12
2018-03-18T00:08:32.010Z,1005.12
2018-03-18T00:09:31.856Z,1005.11
2018-03-18T00:10:31.830Z,1005.12
2018-03-18T00:11:31.849Z,1005.15
2018-03-18T00:12:31.843Z,1005.21
2018-03-18T00:13:31.818Z,1005.16
2018-03-18T00:14:31.831Z,1005.2
2018-03-18T00:15:31.854Z,1005.18
2018-03-18T00:16:31.807Z,1005.16
2018-03-18T00:17:31.801Z,1005.25
2018-03-18T00:18:31.837Z,1005.22
2018-03-18T00:19:32.000Z,1005.17
2018-03-18T00:20:31.809Z,1005.21
2018-03-18T00:21:31.841Z,1005.24
2018-03-18T00:22:31.819Z,1005.24
2018-03-18T00:23:31.828Z,1005.26
2018-03-18T00:24:31.834Z,1005.24
2018-03-18T00:25:31.797Z,1005.28
2018-03-18T00:26:31.800Z,1005.23
2018-03-18T00:27:31.835Z,1005.29
2018-03-18T00:28:31.821Z,1005.3
2018-03-18T00:29:31.805Z,1005.27
2018-03-18T00:30:31.842Z,1005.31
2018-03-18T00:31:31.809Z,1005.26
2018-03-18T00:32:31.801Z,1005.27
2018-03-18T00:33:31.839Z,1005.25
2018-03-18T00:34:31.843Z,1005.25
2018-03-18T00:35:31.861Z,1005.25
2018-03-18T00:36:31.841Z,1005.29
2018-03-18T00:37:31.788Z,1005.25
2018-03-18T00:38:31.795Z,1005.22
2018-03-18T00:39:31.834Z,1005.26
2018-03-18T00:40:31.805Z,1005.27
2018-03-18T00:41:31.800Z,1005.25
2018-03-18T00:42:31.823Z,1005.2
2018-03-18T00:43:31.828Z,1005.18
2018-03-18T00:44:31.822Z,1005.24
2018-03-18T00:45:31.896Z,1005.28
2018-03-18T00:46:31.788Z,1005.23
2018-03-18T00:47:31.934Z,1005.28
2018-03-18T00:48:31.918Z,1005.28
2018-03-18T00:49:31.792Z,1005.24
2018-03-18T00:50:31.844Z,1005.24
2018-03-18T00:51:31.829Z,1005.22
2018-03-18T00:52:31.821Z,1005.2
2018-03-18T00:53:31.808Z,1005.23
2018-03-18T00:54:31.832Z,1005.26
2018-03-18T00:55:31.825Z,1005.22
2018-03-18T00:56:31.800Z,1005.18
2018-03-18T00:57:31.840Z,1005.22
2018-03-18T00:58:31.829Z,1005.2
2018-03-18T00:59:31.815Z,1005.21
2018-03-18T01:00:31.822Z,1005.2
2018-03-18T01:01:31.832Z,1005.16
2018-03-18T01:02:31.798Z,1005.17
2018-03-18T01:03:32.088Z,1005.19
2018-03-18T01:04:31.817Z,1005.18
2018-03-18T01:05:31.788Z,1005.19
2018-03-18T01:06:31.826Z,1005.15
2018-03-18T01:07:31.814Z,1005.13
2018-03-18T01:08:31.839Z,1005.17
2018-03-18T01:09:31.820Z,1005.17
2018-03-18T01:10:31.812Z,1005.15
2018-03-18T01:11:31.784Z,1005.11
2018-03-18T01:12:31.815Z,1005.12
2018-03-18T01:13:31.828Z,1005.08
2018-03-18T01:14:31.819Z,1005.09
2018-03-18T01:15:31.794Z,1005.11
2018-03-18T01:16:31.832Z,1005.09
2018-03-18T01:17:31.826Z,1005.07
2018-03-18T01:18:31.856Z,1005.07
2018-03-18T01:19:31.810Z,1005.06
2018-03-18T01:20:31.809Z,1005.08
2018-03-18T01:21:31.826Z,1005.06
2018-03-18T01:22:31.847Z,1005.01
2018-03-18T01:23:31.801Z,1005.02
2018-03-18T01:24:31.837Z,1004.98
2018-03-18T01:25:31.790Z,1004.99
2018-03-18T01:26:31.810Z,1004.98
2018-03-18T01:27:31.817Z,1004.91
2018-03-18T01:28:31.804Z,1004.92
2018-03-18T01:29:31.806Z,1004.96
2018-03-18T01:30:31.833Z,1004.91
2018-03-18T01:31:31.768Z,1004.89
2018-03-18T01:32:31.823Z,1004.94
2018-03-18T01:33:31.816Z,1004.97
2018-03-18T01:34:31.945Z,1004.89
2018-03-18T01:35:31.772Z,1004.87
2018-03-18T01:36:31.813Z,1004.9
2018-03-18T01:37:31.814Z,1004.9
2018-03-18T01:38:31.780Z,1004.91
2018-03-18T01:39:31.840Z,1004.91
2018-03-18T01:40:31.780Z,1004.84
2018-03-18T01:41:31.776Z,1004.85
2018-03-18T01:42:31.811Z,1004.88
2018-03-18T01:43:31.808Z,1004.86
2018-03-18T01:44:31.797Z,1004.84
2018-03-18T01:45:31.813Z,1004.84
2018-03-18T01:46:31.780Z,1004.78
2018-03-18T01:47:31.773Z,1004.79
2018-03-18T01:48:31.837Z,1004.79
2018-03-18T01:49:31.827Z,1004.79
2018-03-18T01:50:31.784Z,1004.73
2018-03-18T01:51:31.797Z,1004.72
2018-03-18T01:52:31.779Z,1004.74
2018-03-18T01:53:31.810Z,1004.71
2018-03-18T01:54:31.828Z,1004.73
2018-03-18T01:55:31.791Z,1004.76
2018-03-18T01:56:31.797Z,1004.74
2018-03-18T01:57:31.819Z,1004.72
2018-03-18T01:58:31.835Z,1004.73
2018-03-18T01:59:31.789Z,1004.73
2018-03-18T02:00:31.802Z,1004.73
2018-03-18T02:01:31.762Z,1004.7
2018-03-18T02:02:31.775Z,1004.71
2018-03-18T02:03:31.825Z,1004.72
2018-03-18T02:04:31.777Z,1004.66
2018-03-18T02:05:31.808Z,1004.7
2018-03-18T02:06:31.823Z,1004.72
2018-03-18T02:07:31.766Z,1004.67
2018-03-18T02:08:31.767Z,1004.7
2018-03-18T02:09:31.809Z,1004.68
2018-03-18T02:10:31.795Z,1004.65
2018-03-18T02:11:31.795Z,1004.66
2018-03-18T02:12:31.806Z,1004.7
2018-03-18T02:13:31.798Z,1004.68
2018-03-18T02:14:31.759Z,1004.66
2018-03-18T02:15:31.796Z,1004.64
2018-03-18T02:16:31.789Z,1004.63
2018-03-18T02:17:31.780Z,1004.69
2018-03-18T02:18:31.798Z,1004.65
2018-03-18T02:19:31.776Z,1004.66
2018-03-18T02:20:31.797Z,1004.65
2018-03-18T02:21:31.829Z,1004.62
2018-03-18T02:22:31.768Z,1004.56
2018-03-18T02:23:31.769Z,1004.63
2018-03-18T02:24:31.785Z,1004.6
2018-03-18T02:25:31.788Z,1004.62
2018-03-18T02:26:31.794Z,1004.66
2018-03-18T02:27:31.803Z,1004.62
2018-03-18T02:28:31.770Z,1004.59
2018-03-18T02:29:31.785Z,1004.61
2018-03-18T02:30:31.790Z,1004.6
2018-03-18T02:31:31.810Z,1004.58
2018-03-18T02:32:31.785Z,1004.57
2018-03-18T02:33:31.797Z,1004.59
2018-03-18T02:34:31.789Z,1004.59
2018-03-18T02:35:31.808Z,1004.55
2018-03-18T02:36:31.813Z,1004.56
2018-03-18T02:37:31.812Z,1004.57
2018-03-18T02:38:31.797Z,1004.56
2018-03-18T02:39:31.817Z,1004.54
2018-03-18T02:40:31.777Z,1004.55
2018-03-18T02:41:31.778Z,1004.54
2018-03-18T02:42:31.833Z,1004.52
2018-03-18T02:43:31.757Z,1004.54
2018-03-18T02:44:31.778Z,1004.56
2018-03-18T02:45:31.788Z,1004.58
2018-03-18T02:46:31.777Z,1004.51
2018-03-18T02:47:31.783Z,1004.52
2018-03-18T02:48:31.907Z,1004.52
2018-03-18T02:49:31.867Z,1004.53
2018-03-18T02:50:31.815Z,1004.51
2018-03-18T02:51:31.856Z,1004.51
2018-03-18T02:52:31.769Z,1004.52
2018-03-18T02:53:31.787Z,1004.52
2018-03-18T02:54:31.828Z,1004.54
2018-03-18T02:55:31.783Z,1004.53
2018-03-18T02:56:31.792Z,1004.5
2018-03-18T02:57:31.797Z,1004.49
2018-03-18T02:58:31.798Z,1004.51
2018-03-18T02:59:31.782Z,1004.53
2018-03-18T03:00:31.786Z,1004.55
2018-03-18T03:01:31.778Z,1004.53
2018-03-18T03:02:31.805Z,1004.54
2018-03-18T03:03:31.799Z,1004.59
2018-03-18T03:04:31.813Z,1004.52
2018-03-18T03:05:31.880Z,1004.5
2018-03-18T03:06:31.774Z,1004.55
2018-03-18T03:07:31.768Z,1004.55
2018-03-18T03:08:31.752Z,1004.5
2018-03-18T03:09:31.780Z,1004.49
2018-03-18T03:10:31.791Z,1004.53
2018-03-18T03:11:31.765Z,1004.51
2018-03-18T03:12:31.789Z,1004.53
2018-03-18T03:13:31.745Z,1004.5
2018-03-18T03:14:31.746Z,1004.51
2018-03-18T03:15:31.810Z,1004.53
2018-03-18T03:16:31.879Z,1004.53
2018-03-18T03:17:31.768Z,1004.48
2018-03-18T03:18:31.811Z,1004.53
2018-03-18T03:19:31.772Z,1004.54
2018-03-18T03:20:31.747Z,1004.49
2018-03-18T03:21:31.790Z,1004.46
2018-03-18T03:22:31.770Z,1004.48
2018-03-18T03:23:31.745Z,1004.51
2018-03-18T03:24:31.774Z,1004.54
2018-03-18T03:25:31.764Z,1004.49
2018-03-18T03:26:31.771Z,1004.55
2018-03-18T03:27:31.859Z,1004.53
2018-03-18T03:28:31.780Z,1004.51
2018-03-18T03:29:31.741Z,1004.56
2018-03-18T03:30:31.782Z,1004.57
2018-03-18T03:31:31.770Z,1004.54
2018-03-18T03:32:31.771Z,1004.56
2018-03-18T03:33:31.782Z,1004.52
2018-03-18T03:34:31.738Z,1004.51
2018-03-18T03:35:31.777Z,1004.6
2018-03-18T03:36:31.778Z,1004.6
2018-03-18T03:37:31.752Z,1004.58
2018-03-18T03:38:31.770Z,1004.58
2018-03-18T03:39:31.788Z,1004.6
2018-03-18T03:40:31.771Z,1004.55
2018-03-18T03:41:31.798Z,1004.49
2018-03-18T03:42:31.767Z,1004.53
2018-03-18T03:43:31.732Z,1004.64
2018-03-18T03:44:31.761Z,1004.57
2018-03-18T03:45:31.781Z,1004.59
2018-03-18T03:46:31.754Z,1004.61
2018-03-18T03:47:31.800Z,1004.61
2018-03-18T03:48:31.775Z,1004.59
2018-03-18T03:49:31.760Z,1004.6
2018-03-18T03:50:31.758Z,1004.67
2018-03-18T03:51:31.766Z,1004.57
2018-03-18T03:52:31.782Z,1004.62
2018-03-18T03:53:31.754Z,1004.6
2018-03-18T03:54:31.769Z,1004.58
2018-03-18T03:55:31.757Z,1004.55
2018-03-18T03:56:31.739Z,1004.53
2018-03-18T03:57:31.790Z,1004.56
2018-03-18T03:58:31.731Z,1004.5
2018-03-18T03:59:31.761Z,1004.51
2018-03-18T04:00:31.765Z,1004.53
2018-03-18T04:01:31.733Z,1004.51
2018-03-18T04:02:31.752Z,1004.54
2018-03-18T04:03:31.765Z,1004.55
2018-03-18T04:04:31.733Z,1004.51
2018-03-18T04:05:31.733Z,1004.55
2018-03-18T04:06:31.765Z,1004.51
2018-03-18T04:07:31.758Z,1004.46
2018-03-18T04:08:31.752Z,1004.53
2018-03-18T04:09:31.766Z,1004.48
2018-03-18T04:10:31.725Z,1004.49
2018-03-18T04:11:31.733Z,1004.5
2018-03-18T04:12:31.759Z,1004.52
2018-03-18T04:13:31.741Z,1004.47
2018-03-18T04:14:31.727Z,1004.47
2018-03-18T04:15:31.764Z,1004.51
2018-03-18T04:16:31.936Z,1004.52
2018-03-18T04:17:31.746Z,1004.53
2018-03-18T04:18:31.756Z,1004.51
2018-03-18T04:19:31.754Z,1004.49
2018-03-18T04:20:31.752Z,1004.52
2018-03-18T04:21:31.788Z,1004.51
2018-03-18T04:22:31.771Z,1004.56
2018-03-18T04:23:31.758Z,1004.54
2018-03-18T04:24:31.754Z,1004.54
2018-03-18T04:25:31.732Z,1004.54
2018-03-18T04:26:31.734Z,1004.56
2018-03-18T04:27:31.767Z,1004.57
2018-03-18T04:28:31.734Z,1004.58
2018-03-18T04:29:31.722Z,1004.52
2018-03-18T04:30:31.752Z,1004.58
2018-03-18T04:31:31.771Z,1004.57
2018-03-18T04:32:31.781Z,1004.57
2018-03-18T04:33:31.751Z,1004.55
2018-03-18T04:34:31.754Z,1004.59
2018-03-18T04:35:31.743Z,1004.62
2018-03-18T04:36:31.760Z,1004.58
2018-03-18T04:37:31.782Z,1004.58
2018-03-18T04:38:31.731Z,1004.6
2018-03-18T04:39:31.752Z,1004.55
2018-03-18T04:40:31.710Z,1004.59
2018-03-18T04:41:31.725Z,1004.58
2018-03-18T04:42:31.788Z,1004.56
2018-03-18T04:43:31.753Z,1004.6
2018-03-18T04:44:31.748Z,1004.61
2018-03-18T04:45:31.761Z,1004.59
2018-03-18T04:46:31.718Z,1004.6
2018-03-18T04:47:31.720Z,1004.64
2018-03-18T04:48:31.766Z,1004.6
2018-03-18T04:49:31.816Z,1004.69
2018-03-18T04:50:31.821Z,1004.67
2018-03-18T04:51:31.751Z,1004.63
2018-03-18T04:52:31.720Z,1004.64
2018-03-18T04:53:31.753Z,1004.67
2018-03-18T04:54:31.741Z,1004.68
2018-03-18T04:55:31.717Z,1004.67
2018-03-18T04:56:31.734Z,1004.63
2018-03-18T04:57:31.753Z,1004.62
2018-03-18T04:58:31.716Z,1004.67
2018-03-18T04:59:31.709Z,1004.67
2018-03-18T05:00:31.767Z,1004.7
2018-03-18T05:01:31.760Z,1004.67
2018-03-18T05:02:31.732Z,1004.73
2018-03-18T05:03:31.747Z,1004.72
2018-03-18T05:04:31.746Z,1004.73
2018-03-18T05:05:31.726Z,1004.72
2018-03-18T05:06:31.762Z,1004.68
2018-03-18T05:07:31.708Z,1004.76
2018-03-18T05:08:31.709Z,1004.73
2018-03-18T05:09:31.748Z,1004.74
2018-03-18T05:10:31.710Z,1004.74
2018-03-18T05:11:31.713Z,1004.79
2018-03-18T05:12:31.816Z,1004.71
2018-03-18T05:13:31.736Z,1004.75
2018-03-18T05:14:31.732Z,1004.74
2018-03-18T05:15:31.752Z,1004.73
2018-03-18T05:16:31.745Z,1004.73
2018-03-18T05:17:31.736Z,1004.81
2018-03-18T05:18:31.745Z,1004.78
2018-03-18T05:19:31.735Z,1004.79
2018-03-18T05:20:31.745Z,1004.84
2018-03-18T05:21:31.750Z,1004.78
2018-03-18T05:22:31.721Z,1004.78
2018-03-18T05:23:31.734Z,1004.73
2018-03-18T05:24:31.754Z,1004.78
2018-03-18T05:25:31.740Z,1004.83
2018-03-18T05:26:31.735Z,1004.76
2018-03-18T05:27:31.740Z,1004.83
2018-03-18T05:28:31.719Z,1004.77
2018-03-18T05:29:31.742Z,1004.73
2018-03-18T05:30:31.746Z,1004.81
2018-03-18T05:31:31.718Z,1004.88
2018-03-18T05:32:31.696Z,1004.83
2018-03-18T05:33:31.734Z,1004.87
2018-03-18T05:34:31.702Z,1004.93
2018-03-18T05:35:31.905Z,1004.91
2018-03-18T05:36:31.738Z,1004.9
2018-03-18T05:37:31.698Z,1004.91
2018-03-18T05:38:31.700Z,1004.9
2018-03-18T05:39:31.743Z,1004.95
2018-03-18T05:40:31.730Z,1004.96
2018-03-18T05:41:31.735Z,1004.94
2018-03-18T05:42:31.730Z,1004.96
2018-03-18T05:43:31.758Z,1004.97
2018-03-18T05:44:31.720Z,1005.02
2018-03-18T05:45:31.910Z,1004.95
2018-03-18T05:46:31.692Z,1005.01
2018-03-18T05:47:31.737Z,1004.97
2018-03-18T05:48:31.743Z,1004.99
2018-03-18T05:49:31.689Z,1005
2018-03-18T05:50:31.744Z,1004.99
2018-03-18T05:51:31.745Z,1005.01
2018-03-18T05:52:31.707Z,1005
2018-03-18T05:53:31.717Z,1005.02
2018-03-18T05:54:31.735Z,1005.09
2018-03-18T05:55:31.740Z,1005.06
2018-03-18T05:56:31.694Z,1005.06
2018-03-18T05:57:31.724Z,1005.1
2018-03-18T05:58:31.718Z,1005.11
2018-03-18T05:59:31.724Z,1005.08
2018-03-18T06:00:31.753Z,1005.08
2018-03-18T06:01:31.698Z,1005.05
2018-03-18T06:02:31.695Z,1005.08
2018-03-18T06:03:31.733Z,1005.1
2018-03-18T06:04:31.697Z,1005.11
2018-03-18T06:05:31.742Z,1005.12
2018-03-18T06:06:31.744Z,1005.12
2018-03-18T06:07:31.683Z,1005.15
2018-03-18T06:08:31.688Z,1005.18
2018-03-18T06:09:31.734Z,1005.17
2018-03-18T06:10:31.734Z,1005.19
2018-03-18T06:11:31.693Z,1005.19
2018-03-18T06:12:31.878Z,1005.18
2018-03-18T06:13:31.706Z,1005.16
2018-03-18T06:14:31.692Z,1005.18
2018-03-18T06:15:31.734Z,1005.2
2018-03-18T06:16:31.689Z,1005.18
2018-03-18T06:17:31.735Z,1005.22
2018-03-18T06:18:31.722Z,1005.22
2018-03-18T06:19:31.738Z,1005.24
2018-03-18T06:20:31.736Z,1005.2
2018-03-18T06:21:31.712Z,1005.28
2018-03-18T06:22:31.683Z,1005.23
2018-03-18T06:23:31.687Z,1005.24
2018-03-18T06:24:31.762Z,1005.25
2018-03-18T06:25:31.718Z,1005.26
2018-03-18T06:26:31.701Z,1005.31
2018-03-18T06:27:31.713Z,1005.31
2018-03-18T06:28:31.711Z,1005.29
2018-03-18T06:29:31.705Z,1005.3
2018-03-18T06:30:31.713Z,1005.28
2018-03-18T06:31:31.922Z,1005.34
2018-03-18T06:32:31.711Z,1005.29
2018-03-18T06:33:31.738Z,1005.35
2018-03-18T06:34:31.680Z,1005.35
2018-03-18T06:35:31.723Z,1005.33
2018-03-18T06:36:31.721Z,1005.37
2018-03-18T06:37:31.825Z,1005.38
2018-03-18T06:38:31.698Z,1005.4
2018-03-18T06:39:31.715Z,1005.38
2018-03-18T06:40:31.716Z,1005.42
2018-03-18T06:41:31.713Z,1005.38
2018-03-18T06:42:31.730Z,1005.37
2018-03-18T06:43:31.678Z,1005.38
2018-03-18T06:44:31.694Z,1005.4
2018-03-18T06:45:31.711Z,1005.39
2018-03-18T06:46:31.684Z,1005.41
2018-03-18T06:47:31.678Z,1005.45
2018-03-18T06:48:31.721Z,1005.43
2018-03-18T06:49:31.679Z,1005.49
2018-03-18T06:50:31.803Z,1005.44
2018-03-18T06:51:31.850Z,1005.42
2018-03-18T06:52:31.681Z,1005.52
2018-03-18T06:53:31.758Z,1005.44
2018-03-18T06:54:31.718Z,1005.45
2018-03-18T06:55:31.683Z,1005.54
2018-03-18T06:56:31.838Z,1005.53
2018-03-18T06:57:31.708Z,1005.56
2018-03-18T06:58:31.700Z,1005.58
2018-03-18T06:59:31.683Z,1005.62
2018-03-18T07:00:31.709Z,1005.58
2018-03-18T07:01:31.795Z,1005.54
2018-03-18T07:02:31.730Z,1005.62
2018-03-18T07:03:31.704Z,1005.54
2018-03-18T07:04:31.710Z,1005.61
2018-03-18T07:05:31.676Z,1005.62
2018-03-18T07:06:31.707Z,1005.66
2018-03-18T07:07:31.710Z,1005.58
2018-03-18T07:08:31.708Z,1005.62
2018-03-18T07:09:31.728Z,1005.69
2018-03-18T07:10:31.664Z,1005.66
2018-03-18T07:11:31.677Z,1005.71
2018-03-18T07:12:31.704Z,1005.62
2018-03-18T07:13:31.713Z,1005.7
2018-03-18T07:14:31.676Z,1005.66
2018-03-18T07:15:31.704Z,1005.69
2018-03-18T07:16:31.697Z,1005.71
2018-03-18T07:17:31.667Z,1005.74
2018-03-18T07:18:31.694Z,1005.75
2018-03-18T07:19:31.673Z,1005.76
2018-03-18T07:20:31.706Z,1005.75
2018-03-18T07:21:31.745Z,1005.82
2018-03-18T07:22:31.689Z,1005.76
2018-03-18T07:23:31.731Z,1005.79
2018-03-18T07:24:31.710Z,1005.79
2018-03-18T07:25:31.846Z,1005.73
2018-03-18T07:26:31.722Z,1005.76
2018-03-18T07:27:31.709Z,1005.76
2018-03-18T07:28:31.687Z,1005.81
2018-03-18T07:29:31.684Z,1005.79
2018-03-18T07:30:31.721Z,1005.81
2018-03-18T07:31:31.696Z,1005.81
2018-03-18T07:32:31.677Z,1005.76
2018-03-18T07:33:31.697Z,1005.86
2018-03-18T07:34:31.696Z,1005.87
2018-03-18T07:35:31.671Z,1005.86
2018-03-18T07:36:31.947Z,1005.83
2018-03-18T07:37:31.658Z,1005.82
2018-03-18T07:38:31.849Z,1005.88
2018-03-18T07:39:31.696Z,1005.84
2018-03-18T07:40:31.667Z,1005.94
2018-03-18T07:41:31.679Z,1005.88
2018-03-18T07:42:31.691Z,1005.92
2018-03-18T07:43:31.703Z,1005.93
2018-03-18T07:44:31.691Z,1005.92
2018-03-18T07:45:31.692Z,1005.91
2018-03-18T07:46:31.663Z,1005.96
2018-03-18T07:47:31.664Z,1005.97
2018-03-18T07:48:31.728Z,1005.97
2018-03-18T07:49:31.659Z,1006
2018-03-18T07:50:31.685Z,1005.98
2018-03-18T07:51:31.722Z,1006.05
2018-03-18T07:52:31.704Z,1006
2018-03-18T07:53:31.669Z,1006.07
2018-03-18T07:54:31.704Z,1006.05
2018-03-18T07:55:31.658Z,1006.08
2018-03-18T07:56:31.678Z,1006.08
2018-03-18T07:57:31.709Z,1006.07
2018-03-18T07:58:31.648Z,1006.11
2018-03-18T07:59:31.649Z,1006.14
2018-03-18T08:00:31.701Z,1006.11
2018-03-18T08:01:31.660Z,1006.14
2018-03-18T08:02:31.685Z,1006.15
2018-03-18T08:03:31.688Z,1006.18
2018-03-18T08:04:31.687Z,1006.16
2018-03-18T08:05:31.661Z,1006.23
2018-03-18T08:06:31.714Z,1006.16
2018-03-18T08:07:31.845Z,1006.16
2018-03-18T08:08:31.649Z,1006.16
2018-03-18T08:09:31.686Z,1006.15
2018-03-18T08:10:31.679Z,1006.2
2018-03-18T08:11:31.654Z,1006.18
2018-03-18T08:12:31.775Z,1006.19
2018-03-18T08:13:31.652Z,1006.21
2018-03-18T08:14:31.675Z,1006.21
2018-03-18T08:15:31.688Z,1006.27
2018-03-18T08:16:31.674Z,1006.2
2018-03-18T08:17:31.683Z,1006.24
2018-03-18T08:18:31.669Z,1006.26
2018-03-18T08:19:31.676Z,1006.23
2018-03-18T08:20:31.662Z,1006.25
2018-03-18T08:21:31.691Z,1006.29
2018-03-18T08:22:31.683Z,1006.36
2018-03-18T08:23:31.667Z,1006.29
2018-03-18T08:24:31.697Z,1006.29
2018-03-18T08:25:31.641Z,1006.34
2018-03-18T08:26:31.647Z,1006.37
2018-03-18T08:27:31.678Z,1006.28
2018-03-18T08:28:31.663Z,1006.3
2018-03-18T08:29:31.656Z,1006.37
2018-03-18T08:30:31.680Z,1006.34
2018-03-18T08:31:31.668Z,1006.39
2018-03-18T08:32:31.667Z,1006.34
2018-03-18T08:33:31.705Z,1006.37
2018-03-18T08:34:31.658Z,1006.34
2018-03-18T08:35:31.645Z,1006.33
2018-03-18T08:36:31.702Z,1006.46
2018-03-18T08:37:31.670Z,1006.39
2018-03-18T08:38:31.676Z,1006.41
2018-03-18T08:39:31.702Z,1006.4
2018-03-18T08:40:31.643Z,1006.44
2018-03-18T08:41:31.676Z,1006.46
2018-03-18T08:42:31.678Z,1006.51
2018-03-18T08:43:31.636Z,1006.45
2018-03-18T08:44:31.699Z,1006.52
2018-03-18T08:45:31.665Z,1006.48
2018-03-18T08:46:31.641Z,1006.52
2018-03-18T08:47:31.639Z,1006.47
2018-03-18T08:48:31.678Z,1006.57
2018-03-18T08:49:31.684Z,1006.48
2018-03-18T08:50:31.678Z,1006.55
2018-03-18T08:51:31.798Z,1006.48
2018-03-18T08:52:31.755Z,1006.58
2018-03-18T08:53:31.630Z,1006.53
2018-03-18T08:54:31.676Z,1006.54
2018-03-18T08:55:31.690Z,1006.55
2018-03-18T08:56:31.632Z,1006.59
2018-03-18T08:57:31.700Z,1006.61
2018-03-18T08:58:31.656Z,1006.6
2018-03-18T08:59:31.662Z,1006.59
2018-03-18T09:00:31.690Z,1006.68
2018-03-18T09:01:31.668Z,1006.66
2018-03-18T09:02:31.638Z,1006.71
2018-03-18T09:03:31.666Z,1006.63
2018-03-18T09:04:31.637Z,1006.65
2018-03-18T09:05:31.667Z,1006.66
2018-03-18T09:05:48.043Z,1006.66
2018-03-18T09:06:48.012Z,1006.61
2018-03-18T09:07:48.005Z,1006.62
2018-03-18T09:08:48.021Z,1006.67
2018-03-18T09:09:48.022Z,1006.64
2018-03-18T09:10:47.998Z,1006.58
2018-03-18T09:11:48.014Z,1006.61
2018-03-18T09:12:47.996Z,1006.61
2018-03-18T09:13:48.013Z,1006.64
2018-03-18T09:14:48.016Z,1006.64
2018-03-18T09:15:47.996Z,1006.55
2018-03-18T09:16:47.991Z,1006.59
2018-03-18T09:17:48.183Z,1006.63
2018-03-18T09:18:47.993Z,1006.66
2018-03-18T09:19:47.991Z,1006.63
2018-03-18T09:20:48.058Z,1006.64
2018-03-18T09:21:47.995Z,1006.59
2018-03-18T09:22:47.994Z,1006.67
2018-03-18T09:23:48.030Z,1006.67
2018-03-18T09:24:47.994Z,1006.61
2018-03-18T09:25:48.004Z,1006.62
2018-03-18T09:26:48.024Z,1006.7
2018-03-18T09:27:47.991Z,1006.57
2018-03-18T09:28:47.993Z,1006.75
2018-03-18T09:29:48.000Z,1006.64
2018-03-18T09:30:47.990Z,1006.65
2018-03-18T09:31:47.990Z,1006.67
2018-03-18T09:32:47.996Z,1006.62
2018-03-18T09:33:48.163Z,1006.61
2018-03-18T09:34:47.991Z,1006.69
2018-03-18T09:35:48.014Z,1006.59
2018-03-18T09:36:47.983Z,1006.6
2018-03-18T09:37:47.982Z,1006.61
2018-03-18T09:38:48.040Z,1006.66
2018-03-18T09:39:48.034Z,1006.55
2018-03-18T09:40:47.978Z,1006.65
2018-03-18T09:41:47.996Z,1006.57
2018-03-18T09:42:47.983Z,1006.64
2018-03-18T09:43:48.020Z,1006.63
2018-03-18T09:44:47.850Z,1006.68
2018-03-18T09:45:48.006Z,1006.62
2018-03-18T09:46:47.984Z,1006.65
2018-03-18T09:47:47.996Z,1006.61
2018-03-18T09:48:48.129Z,1006.67
2018-03-18T09:49:48.002Z,1006.64
2018-03-18T09:50:48.012Z,1006.56
2018-03-18T09:51:48.001Z,1006.6
2018-03-18T09:52:47.984Z,1006.63
2018-03-18T09:53:48.017Z,1006.58
2018-03-18T09:54:47.984Z,1006.6
2018-03-18T09:55:48.014Z,1006.61
2018-03-18T09:56:48.004Z,1006.64
2018-03-18T09:57:48.028Z,1006.61
2018-03-18T09:58:47.988Z,1006.61
2018-03-18T09:59:48.019Z,1006.67
2018-03-18T10:00:48.017Z,1006.65
2018-03-18T10:01:47.987Z,1006.67
2018-03-18T10:02:48.025Z,1006.65
2018-03-18T10:03:47.978Z,1006.65
2018-03-18T10:04:47.989Z,1006.65
2018-03-18T10:05:48.127Z,1006.69
2018-03-18T10:06:47.975Z,1006.65
2018-03-18T10:07:48.000Z,1006.62
2018-03-18T10:08:47.991Z,1006.64
2018-03-18T10:09:48.006Z,1006.65
2018-03-18T10:10:48.002Z,1006.63
2018-03-18T10:11:48.021Z,1006.66
2018-03-18T10:12:47.981Z,1006.63
2018-03-18T10:13:47.975Z,1006.58
2018-03-18T10:14:47.986Z,1006.6
2018-03-18T10:15:47.979Z,1006.65
2018-03-18T10:16:48.014Z,1006.64
2018-03-18T10:17:48.016Z,1006.61
2018-03-18T10:18:47.970Z,1006.66
2018-03-18T10:19:47.991Z,1006.67
2018-03-18T10:20:48.016Z,1006.7
2018-03-18T10:21:48.116Z,1006.75
2018-03-18T10:22:47.974Z,1006.69
2018-03-18T10:23:47.986Z,1006.7
2018-03-18T10:24:47.996Z,1006.71
2018-03-18T10:25:47.969Z,1006.69
2018-03-18T10:26:48.054Z,1006.68
2018-03-18T10:27:47.976Z,1006.65
2018-03-18T10:28:48.024Z,1006.7
2018-03-18T10:29:47.997Z,1006.65
2018-03-18T10:30:47.965Z,1006.7
2018-03-18T10:31:47.997Z,1006.77
2018-03-18T10:32:48.006Z,1006.67
2018-03-18T10:33:48.001Z,1006.69
2018-03-18T10:34:47.974Z,1006.66
2018-03-18T10:35:48.004Z,1006.68
2018-03-18T10:36:48.001Z,1006.68
2018-03-18T10:37:47.987Z,1006.71
2018-03-18T10:38:47.984Z,1006.75
2018-03-18T10:39:47.972Z,1006.73
2018-03-18T10:40:47.984Z,1006.73
2018-03-18T10:41:48.025Z,1006.8
2018-03-18T10:42:48.132Z,1006.82
2018-03-18T10:43:47.966Z,1006.73
2018-03-18T10:44:47.988Z,1006.73
2018-03-18T10:45:48.007Z,1006.79
2018-03-18T10:46:47.973Z,1006.71
2018-03-18T10:47:48.043Z,1006.77
2018-03-18T10:48:48.073Z,1006.77
2018-03-18T10:49:48.075Z,1006.78
2018-03-18T10:50:47.988Z,1006.73
2018-03-18T10:51:47.967Z,1006.8
2018-03-18T10:52:47.980Z,1006.79
2018-03-18T10:53:47.986Z,1006.79
2018-03-18T10:54:47.998Z,1006.83
2018-03-18T10:55:47.966Z,1006.77
2018-03-18T10:56:47.993Z,1006.77
2018-03-18T10:57:47.963Z,1006.81
2018-03-18T10:58:47.996Z,1006.8
2018-03-18T10:59:47.981Z,1006.83
2018-03-18T11:00:47.957Z,1006.93
2018-03-18T11:01:47.969Z,1006.83
2018-03-18T11:02:47.979Z,1006.91
2018-03-18T11:03:47.969Z,1006.87
2018-03-18T11:04:47.985Z,1006.82
2018-03-18T11:05:47.992Z,1006.9
2018-03-18T11:06:47.959Z,1006.91
2018-03-18T11:07:47.958Z,1006.82
2018-03-18T11:08:48.280Z,1006.92
2018-03-18T11:09:47.954Z,1006.94
2018-03-18T11:10:47.957Z,1006.93
2018-03-18T11:11:47.990Z,1006.95
2018-03-18T11:12:47.975Z,1006.98
2018-03-18T11:13:48.172Z,1006.91
2018-03-18T11:14:48.007Z,1006.96
2018-03-18T11:15:47.963Z,1006.99
2018-03-18T11:16:48.057Z,1007.02
2018-03-18T11:17:48.033Z,1007.03
2018-03-18T11:18:47.982Z,1007.01
2018-03-18T11:19:47.962Z,1007.02
2018-03-18T11:20:48.060Z,1006.99
2018-03-18T11:21:47.959Z,1006.99
2018-03-18T11:22:48.025Z,1007.04
2018-03-18T11:23:48.218Z,1007.02
2018-03-18T11:24:48.043Z,1007.03
2018-03-18T11:25:48.029Z,1007.04
2018-03-18T11:28:23.602Z,1007.14
2018-03-18T11:29:04.189Z,1007.06
2018-03-18T11:30:04.453Z,1007.04
2018-03-18T11:31:04.166Z,1007.01
2018-03-18T11:32:04.255Z,1007.04
2018-03-18T11:33:04.181Z,1007.03
2018-03-18T11:34:04.263Z,1007.01
2018-03-18T11:35:04.189Z,1006.98
2018-03-18T11:36:04.274Z,1007.06
2018-03-18T11:37:04.265Z,1007.03
2018-03-18T11:38:04.282Z,1007.06
2018-03-18T11:39:04.217Z,1007.01
2018-03-18T11:40:04.250Z,1006.97
2018-03-18T11:41:04.216Z,1007.05
2018-03-18T11:42:04.301Z,1007.05
2018-03-18T11:43:04.174Z,1007.05
2018-03-18T11:43:56.929Z,1007.02
2018-03-18T11:44:56.915Z,1007.02
2018-03-18T11:45:56.868Z,1006.97
2018-03-18T11:46:56.907Z,1007.05
2018-03-18T11:53:49.184Z,1006.99
2018-03-18T11:54:49.006Z,1007
2018-03-18T11:55:25.088Z,1007.09
2018-03-18T11:56:25.097Z,1006.99
2018-03-18T11:57:23.713Z,1006.97
2018-03-18T12:01:01.550Z,1007.04
2018-03-18T12:02:01.588Z,1007.01
2018-03-18T12:03:01.520Z,566.51
2018-03-18T12:04:01.520Z,566.63
2018-03-18T12:05:01.506Z,566.78
2018-03-18T12:06:01.521Z,566.92
2018-03-18T12:07:01.512Z,567.17
2018-03-18T12:08:01.517Z,567.22
2018-03-18T12:09:01.527Z,566.9
2018-03-18T12:10:01.508Z,567.01
2018-03-18T12:11:01.502Z,567.04
2018-03-18T12:12:01.576Z,566.73
2018-03-18T12:13:01.509Z,566.91
2018-03-18T12:14:01.549Z,566.83
2018-03-18T12:15:01.505Z,566.37
2018-03-18T12:16:01.497Z,566.44
2018-03-18T12:17:01.498Z,566.41